Airfield :
LOGIN :

Register | Disclaimer

   EN    FR    IT 

 










Legend :    VFR   Marginal VFR   IFR   Intensive IFR   Very Intensive IFR
Visi :
Ceiling :
>= 8 km
>= 3000ft
5 to 8 km
1000 to 3000 ft
1500m to 5 km
500 to 1000 ft
800 to 1500m
200 to 500 ft
< 800m
< 200 ft
Symbols :   Thunderstorms  Fog  Heavy snow  Heavy precipitations  Wind > 20 kt
SIGMETs :     Misc.  Thunderstorms  Icing  Turbulence  Mountain Waves  Volcanic Ashes






- Airport Elevation : 459 ft
- IATA code : CER


LFRC - Cherbourg / Maupertus

CURRENT METAR :
  • 281830Z AUTO 05021G35KT 9999 OVC025 08/03 Q1027

EXPIRED METARs :
  • 281800Z AUTO 05021KT 9999 OVC022 08/03 Q1027
  • 281730Z AUTO 06018KT 030V090 9999 BKN020 BKN027 08/04 Q1026
  • 281700Z AUTO 05017G29KT 9999 FEW025 08/04 Q1026
  • 281630Z AUTO 05021G32KT CAVOK 09/03 Q1025
  • 281600Z AUTO 05018KT CAVOK 09/04 Q1025

Expired Forecast.



MET'MAP, your aeronautical weather chart ! - Copyright ORBIFLY December 2007 - Disclaimer

ORBIFLY MET'MAP TEAM :

Programming & Development : Alexandra Zaïnal
Concept & original design : Baudouin d'Aumeries
Assistance for programming : Marc-Olivier Méhu
Technical & hardware support : Manuel Goepfert

Contact : metmap@orbifly.com




SOURCES & CREDITS :

   NOAA